sensor_id;sensor_type;location;lat;lon;timestamp;P1;durP1;ratioP1;P2;durP2;ratioP2
74538;SDS011;66042;51.090;-115.340;2023-05-14T00:00:14;10.20;;;2.00;;
74538;SDS011;66042;51.090;-115.340;2023-05-14T00:02:41;12.40;;;2.70;;
74538;SDS011;66042;51.090;-115.340;2023-05-14T00:05:09;16.80;;;2.40;;
74538;SDS011;66042;51.090;-115.340;2023-05-14T00:07:35;5.50;;;2.80;;
74538;SDS011;66042;51.090;-115.340;2023-05-14T00:10:02;2.50;;;1.40;;
74538;SDS011;66042;51.090;-115.340;2023-05-14T00:12:29;3.40;;;1.50;;
74538;SDS011;66042;51.090;-115.340;2023-05-14T00:14:56;9.90;;;6.80;;
74538;SDS011;66042;51.090;-115.340;2023-05-14T00:17:23;6.20;;;3.40;;
74538;SDS011;66042;51.090;-115.340;2023-05-14T00:19:50;3.40;;;2.20;;
74538;SDS011;66042;51.090;-115.340;2023-05-14T00:22:17;3.60;;;1.20;;
74538;SDS011;66042;51.090;-115.340;2023-05-14T00:24:44;2.10;;;1.30;;
74538;SDS011;66042;51.090;-115.340;2023-05-14T00:27:11;4.00;;;2.70;;
74538;SDS011;66042;51.090;-115.340;2023-05-14T00:29:38;4.10;;;1.50;;
74538;SDS011;66042;51.090;-115.340;2023-05-14T00:32:05;4.00;;;2.10;;
74538;SDS011;66042;51.090;-115.340;2023-05-14T00:34:33;4.50;;;1.60;;
74538;SDS011;66042;51.090;-115.340;2023-05-14T00:37:01;3.90;;;1.20;;
74538;SDS011;66042;51.090;-115.340;2023-05-14T00:39:28;4.10;;;1.10;;
74538;SDS011;66042;51.090;-115.340;2023-05-14T00:41:55;2.70;;;1.00;;
74538;SDS011;66042;51.090;-115.340;2023-05-14T00:44:22;4.10;;;1.10;;
74538;SDS011;66042;51.090;-115.340;2023-05-14T00:46:49;4.70;;;1.40;;
74538;SDS011;66042;51.090;-115.340;2023-05-14T00:49:17;2.10;;;1.10;;
74538;SDS011;66042;51.090;-115.340;2023-05-14T00:51:43;2.50;;;1.10;;
74538;SDS011;66042;51.090;-115.340;2023-05-14T00:54:15;4.30;;;1.40;;
74538;SDS011;66042;51.090;-115.340;2023-05-14T00:56:45;4.50;;;1.40;;
74538;SDS011;66042;51.090;-115.340;2023-05-14T00:59:13;5.50;;;1.40;;
74538;SDS011;66042;51.090;-115.340;2023-05-14T01:01:40;2.00;;;0.90;;
74538;SDS011;66042;51.090;-115.340;2023-05-14T01:04:09;3.80;;;0.90;;
74538;SDS011;66042;51.090;-115.340;2023-05-14T01:09:35;3.10;;;1.00;;
74538;SDS011;66042;51.090;-115.340;2023-05-14T01:12:20;3.60;;;1.40;;
74538;SDS011;66042;51.090;-115.340;2023-05-14T01:17:32;4.00;;;2.00;;
74538;SDS011;66042;51.090;-115.340;2023-05-14T01:20:04;3.20;;;1.70;;
74538;SDS011;66042;51.090;-115.340;2023-05-14T01:22:32;5.40;;;1.90;;
74538;SDS011;66042;51.090;-115.340;2023-05-14T01:24:59;3.50;;;1.80;;
74538;SDS011;66042;51.090;-115.340;2023-05-14T01:27:51;3.70;;;1.80;;
74538;SDS011;66042;51.090;-115.340;2023-05-14T01:30:34;2.80;;;1.40;;
74538;SDS011;66042;51.090;-115.340;2023-05-14T01:33:06;7.90;;;1.70;;
74538;SDS011;66042;51.090;-115.340;2023-05-14T01:35:36;3.40;;;1.40;;
74538;SDS011;66042;51.090;-115.340;2023-05-14T01:38:06;3.70;;;1.70;;
74538;SDS011;66042;51.090;-115.340;2023-05-14T01:40:36;5.20;;;2.10;;
74538;SDS011;66042;51.090;-115.340;2023-05-14T01:43:04;4.30;;;1.90;;
74538;SDS011;66042;51.090;-115.340;2023-05-14T01:45:34;4.30;;;1.90;;
74538;SDS011;66042;51.090;-115.340;2023-05-14T01:48:03;5.30;;;2.50;;
74538;SDS011;66042;51.090;-115.340;2023-05-14T01:50:30;6.80;;;2.50;;
74538;SDS011;66042;51.090;-115.340;2023-05-14T01:52:57;5.70;;;2.80;;
74538;SDS011;66042;51.090;-115.340;2023-05-14T01:55:24;6.10;;;2.80;;
74538;SDS011;66042;51.090;-115.340;2023-05-14T01:57:52;4.80;;;3.00;;
74538;SDS011;66042;51.090;-115.340;2023-05-14T02:00:22;6.00;;;2.70;;
74538;SDS011;66042;51.090;-115.340;2023-05-14T02:02:52;7.00;;;3.00;;
74538;SDS011;66042;51.090;-115.340;2023-05-14T02:05:19;7.00;;;3.40;;
74538;SDS011;66042;51.090;-115.340;2023-05-14T02:07:46;8.80;;;3.10;;
74538;SDS011;66042;51.090;-115.340;2023-05-14T02:10:13;5.80;;;3.10;;
74538;SDS011;66042;51.090;-115.340;2023-05-14T02:12:40;5.70;;;3.30;;
74538;SDS011;66042;51.090;-115.340;2023-05-14T02:15:08;4.80;;;3.10;;
74538;SDS011;66042;51.090;-115.340;2023-05-14T02:17:36;7.90;;;3.50;;
74538;SDS011;66042;51.090;-115.340;2023-05-14T02:20:03;6.90;;;3.40;;
74538;SDS011;66042;51.090;-115.340;2023-05-14T02:22:31;6.80;;;3.60;;
74538;SDS011;66042;51.090;-115.340;2023-05-14T02:24:58;8.20;;;3.50;;
74538;SDS011;66042;51.090;-115.340;2023-05-14T02:27:26;6.50;;;3.90;;
74538;SDS011;66042;51.090;-115.340;2023-05-14T02:29:52;6.10;;;3.90;;
74538;SDS011;66042;51.090;-115.340;2023-05-14T02:32:21;6.60;;;4.40;;
74538;SDS011;66042;51.090;-115.340;2023-05-14T02:34:48;8.20;;;4.00;;
74538;SDS011;66042;51.090;-115.340;2023-05-14T02:37:15;8.20;;;4.30;;
74538;SDS011;66042;51.090;-115.340;2023-05-14T02:39:43;8.10;;;4.50;;
74538;SDS011;66042;51.090;-115.340;2023-05-14T02:42:10;8.70;;;4.30;;
74538;SDS011;66042;51.090;-115.340;2023-05-14T02:44:37;8.70;;;4.50;;
74538;SDS011;66042;51.090;-115.340;2023-05-14T02:47:04;8.00;;;4.30;;
74538;SDS011;66042;51.090;-115.340;2023-05-14T02:49:31;7.00;;;3.70;;
74538;SDS011;66042;51.090;-115.340;2023-05-14T02:51:58;7.80;;;4.50;;
74538;SDS011;66042;51.090;-115.340;2023-05-14T02:54:26;9.30;;;4.70;;
74538;SDS011;66042;51.090;-115.340;2023-05-14T02:56:53;7.30;;;4.80;;
74538;SDS011;66042;51.090;-115.340;2023-05-14T02:59:21;7.60;;;4.40;;
74538;SDS011;66042;51.090;-115.340;2023-05-14T03:01:49;9.80;;;4.80;;
74538;SDS011;66042;51.090;-115.340;2023-05-14T03:04:16;8.70;;;5.50;;
74538;SDS011;66042;51.090;-115.340;2023-05-14T03:06:43;8.50;;;5.30;;
74538;SDS011;66042;51.090;-115.340;2023-05-14T03:09:09;8.70;;;4.80;;
74538;SDS011;66042;51.090;-115.340;2023-05-14T03:11:36;8.40;;;4.80;;
74538;SDS011;66042;51.090;-115.340;2023-05-14T03:14:03;8.60;;;5.40;;
74538;SDS011;66042;51.090;-115.340;2023-05-14T03:16:30;9.90;;;5.00;;
74538;SDS011;66042;51.090;-115.340;2023-05-14T03:18:57;8.70;;;5.20;;
74538;SDS011;66042;51.090;-115.340;2023-05-14T03:21:24;10.60;;;5.40;;
74538;SDS011;66042;51.090;-115.340;2023-05-14T03:23:52;8.80;;;5.00;;
74538;SDS011;66042;51.090;-115.340;2023-05-14T03:26:19;7.70;;;5.00;;
74538;SDS011;66042;51.090;-115.340;2023-05-14T03:28:47;9.00;;;5.30;;
74538;SDS011;66042;51.090;-115.340;2023-05-14T03:31:15;8.60;;;5.60;;
74538;SDS011;66042;51.090;-115.340;2023-05-14T03:33:41;11.30;;;5.20;;
74538;SDS011;66042;51.090;-115.340;2023-05-14T03:36:09;9.60;;;4.60;;
74538;SDS011;66042;51.090;-115.340;2023-05-14T03:38:36;7.90;;;4.40;;
74538;SDS011;66042;51.090;-115.340;2023-05-14T03:41:03;10.70;;;5.30;;
74538;SDS011;66042;51.090;-115.340;2023-05-14T03:43:30;10.50;;;4.60;;
74538;SDS011;66042;51.090;-115.340;2023-05-14T03:45:57;9.20;;;4.70;;
74538;SDS011;66042;51.090;-115.340;2023-05-14T03:48:24;8.10;;;4.30;;
74538;SDS011;66042;51.090;-115.340;2023-05-14T03:50:51;9.90;;;4.20;;
74538;SDS011;66042;51.090;-115.340;2023-05-14T03:53:18;7.20;;;4.70;;
74538;SDS011;66042;51.090;-115.340;2023-05-14T03:55:45;8.30;;;5.00;;
74538;SDS011;66042;51.090;-115.340;2023-05-14T03:58:12;11.70;;;4.70;;
74538;SDS011;66042;51.090;-115.340;2023-05-14T04:00:41;8.70;;;4.80;;
74538;SDS011;66042;51.090;-115.340;2023-05-14T04:03:08;8.20;;;5.00;;
74538;SDS011;66042;51.090;-115.340;2023-05-14T04:05:36;8.20;;;4.70;;
74538;SDS011;66042;51.090;-115.340;2023-05-14T04:08:03;7.90;;;4.70;;
74538;SDS011;66042;51.090;-115.340;2023-05-14T04:10:30;7.60;;;4.50;;
74538;SDS011;66042;51.090;-115.340;2023-05-14T04:12:57;8.40;;;4.80;;
74538;SDS011;66042;51.090;-115.340;2023-05-14T04:15:24;8.40;;;4.70;;
74538;SDS011;66042;51.090;-115.340;2023-05-14T04:17:51;9.60;;;5.00;;
74538;SDS011;66042;51.090;-115.340;2023-05-14T04:20:19;9.30;;;4.90;;
74538;SDS011;66042;51.090;-115.340;2023-05-14T04:22:46;7.90;;;4.70;;
74538;SDS011;66042;51.090;-115.340;2023-05-14T04:25:13;7.70;;;4.70;;
74538;SDS011;66042;51.090;-115.340;2023-05-14T04:27:40;9.30;;;4.50;;
74538;SDS011;66042;51.090;-115.340;2023-05-14T04:30:07;9.80;;;5.00;;
74538;SDS011;66042;51.090;-115.340;2023-05-14T04:32:35;8.00;;;4.00;;
74538;SDS011;66042;51.090;-115.340;2023-05-14T04:35:03;7.50;;;4.30;;
74538;SDS011;66042;51.090;-115.340;2023-05-14T04:37:31;8.20;;;3.90;;
74538;SDS011;66042;51.090;-115.340;2023-05-14T04:39:59;9.40;;;4.40;;
74538;SDS011;66042;51.090;-115.340;2023-05-14T04:42:26;7.20;;;4.00;;
74538;SDS011;66042;51.090;-115.340;2023-05-14T04:44:53;5.70;;;4.20;;
74538;SDS011;66042;51.090;-115.340;2023-05-14T04:47:19;7.80;;;4.00;;
74538;SDS011;66042;51.090;-115.340;2023-05-14T04:49:46;7.70;;;4.00;;
74538;SDS011;66042;51.090;-115.340;2023-05-14T04:52:13;7.20;;;4.60;;
74538;SDS011;66042;51.090;-115.340;2023-05-14T04:54:40;7.20;;;4.20;;
74538;SDS011;66042;51.090;-115.340;2023-05-14T04:57:07;8.80;;;4.50;;
74538;SDS011;66042;51.090;-115.340;2023-05-14T04:59:34;7.90;;;4.40;;
74538;SDS011;66042;51.090;-115.340;2023-05-14T05:02:02;11.60;;;4.30;;
74538;SDS011;66042;51.090;-115.340;2023-05-14T05:04:29;7.20;;;4.20;;
74538;SDS011;66042;51.090;-115.340;2023-05-14T05:06:56;7.70;;;4.90;;
74538;SDS011;66042;51.090;-115.340;2023-05-14T05:09:23;8.60;;;4.10;;
74538;SDS011;66042;51.090;-115.340;2023-05-14T05:11:50;8.00;;;4.40;;
74538;SDS011;66042;51.090;-115.340;2023-05-14T05:14:16;7.20;;;4.20;;
74538;SDS011;66042;51.090;-115.340;2023-05-14T05:16:43;8.20;;;4.30;;
74538;SDS011;66042;51.090;-115.340;2023-05-14T05:19:11;9.30;;;5.10;;
74538;SDS011;66042;51.090;-115.340;2023-05-14T05:21:38;8.30;;;4.10;;
74538;SDS011;66042;51.090;-115.340;2023-05-14T05:24:06;9.10;;;4.20;;
74538;SDS011;66042;51.090;-115.340;2023-05-14T05:26:33;8.70;;;4.50;;
74538;SDS011;66042;51.090;-115.340;2023-05-14T05:29:02;8.10;;;4.30;;
74538;SDS011;66042;51.090;-115.340;2023-05-14T05:31:30;7.80;;;4.40;;
74538;SDS011;66042;51.090;-115.340;2023-05-14T05:34:00;8.80;;;4.60;;
74538;SDS011;66042;51.090;-115.340;2023-05-14T05:36:28;7.80;;;4.10;;
74538;SDS011;66042;51.090;-115.340;2023-05-14T05:38:55;8.20;;;4.20;;
74538;SDS011;66042;51.090;-115.340;2023-05-14T05:41:22;8.00;;;4.20;;
74538;SDS011;66042;51.090;-115.340;2023-05-14T05:43:49;11.60;;;4.50;;
74538;SDS011;66042;51.090;-115.340;2023-05-14T05:46:18;7.30;;;4.40;;
74538;SDS011;66042;51.090;-115.340;2023-05-14T05:48:44;9.20;;;4.10;;
74538;SDS011;66042;51.090;-115.340;2023-05-14T05:51:11;7.70;;;3.90;;
74538;SDS011;66042;51.090;-115.340;2023-05-14T05:53:38;6.90;;;4.30;;
74538;SDS011;66042;51.090;-115.340;2023-05-14T05:56:05;9.70;;;4.80;;
74538;SDS011;66042;51.090;-115.340;2023-05-14T05:58:33;10.70;;;4.10;;
74538;SDS011;66042;51.090;-115.340;2023-05-14T06:01:00;9.60;;;4.80;;
74538;SDS011;66042;51.090;-115.340;2023-05-14T06:03:27;7.90;;;4.00;;
74538;SDS011;66042;51.090;-115.340;2023-05-14T06:05:54;9.10;;;4.20;;
74538;SDS011;66042;51.090;-115.340;2023-05-14T06:08:20;7.90;;;4.40;;
74538;SDS011;66042;51.090;-115.340;2023-05-14T06:10:47;8.50;;;4.50;;
74538;SDS011;66042;51.090;-115.340;2023-05-14T06:13:14;8.80;;;4.00;;
74538;SDS011;66042;51.090;-115.340;2023-05-14T06:15:41;7.50;;;3.70;;
74538;SDS011;66042;51.090;-115.340;2023-05-14T06:18:08;7.40;;;4.40;;
74538;SDS011;66042;51.090;-115.340;2023-05-14T06:20:35;9.70;;;4.10;;
74538;SDS011;66042;51.090;-115.340;2023-05-14T06:23:03;6.60;;;4.00;;
74538;SDS011;66042;51.090;-115.340;2023-05-14T06:25:29;9.00;;;4.00;;
74538;SDS011;66042;51.090;-115.340;2023-05-14T06:27:56;6.80;;;4.20;;
74538;SDS011;66042;51.090;-115.340;2023-05-14T06:30:23;7.60;;;3.80;;
74538;SDS011;66042;51.090;-115.340;2023-05-14T06:32:49;9.80;;;4.10;;
74538;SDS011;66042;51.090;-115.340;2023-05-14T06:35:17;7.10;;;4.00;;
74538;SDS011;66042;51.090;-115.340;2023-05-14T06:37:45;8.70;;;4.30;;
74538;SDS011;66042;51.090;-115.340;2023-05-14T06:40:12;9.20;;;4.00;;
74538;SDS011;66042;51.090;-115.340;2023-05-14T06:42:43;7.40;;;4.20;;
74538;SDS011;66042;51.090;-115.340;2023-05-14T06:45:10;7.70;;;3.60;;
74538;SDS011;66042;51.090;-115.340;2023-05-14T06:47:37;8.40;;;4.40;;
74538;SDS011;66042;51.090;-115.340;2023-05-14T06:50:04;7.10;;;4.30;;
74538;SDS011;66042;51.090;-115.340;2023-05-14T06:52:30;7.90;;;4.70;;
74538;SDS011;66042;51.090;-115.340;2023-05-14T06:54:57;6.60;;;4.20;;
74538;SDS011;66042;51.090;-115.340;2023-05-14T06:57:25;7.90;;;4.50;;
74538;SDS011;66042;51.090;-115.340;2023-05-14T06:59:52;8.30;;;4.40;;
74538;SDS011;66042;51.090;-115.340;2023-05-14T07:02:19;8.30;;;4.10;;
74538;SDS011;66042;51.090;-115.340;2023-05-14T07:04:46;9.00;;;4.10;;
74538;SDS011;66042;51.090;-115.340;2023-05-14T07:07:13;8.10;;;3.80;;
74538;SDS011;66042;51.090;-115.340;2023-05-14T07:09:42;7.20;;;4.40;;
74538;SDS011;66042;51.090;-115.340;2023-05-14T07:12:09;7.30;;;3.90;;
74538;SDS011;66042;51.090;-115.340;2023-05-14T07:14:36;7.80;;;4.10;;
74538;SDS011;66042;51.090;-115.340;2023-05-14T07:17:04;7.80;;;4.60;;
74538;SDS011;66042;51.090;-115.340;2023-05-14T07:19:31;7.00;;;4.40;;
74538;SDS011;66042;51.090;-115.340;2023-05-14T07:21:58;9.30;;;4.50;;
74538;SDS011;66042;51.090;-115.340;2023-05-14T07:24:26;7.50;;;4.80;;
74538;SDS011;66042;51.090;-115.340;2023-05-14T07:26:53;8.10;;;4.30;;
74538;SDS011;66042;51.090;-115.340;2023-05-14T07:29:22;8.30;;;4.20;;
74538;SDS011;66042;51.090;-115.340;2023-05-14T07:31:50;9.80;;;4.30;;
74538;SDS011;66042;51.090;-115.340;2023-05-14T07:34:17;7.70;;;4.40;;
74538;SDS011;66042;51.090;-115.340;2023-05-14T07:36:44;9.00;;;4.00;;
74538;SDS011;66042;51.090;-115.340;2023-05-14T07:39:12;9.80;;;4.30;;
74538;SDS011;66042;51.090;-115.340;2023-05-14T07:41:39;8.80;;;4.20;;
74538;SDS011;66042;51.090;-115.340;2023-05-14T07:44:06;10.80;;;4.90;;
74538;SDS011;66042;51.090;-115.340;2023-05-14T07:46:32;7.50;;;4.20;;
74538;SDS011;66042;51.090;-115.340;2023-05-14T07:48:59;6.90;;;3.50;;
74538;SDS011;66042;51.090;-115.340;2023-05-14T07:51:26;6.30;;;4.00;;
74538;SDS011;66042;51.090;-115.340;2023-05-14T07:53:53;10.70;;;4.30;;
74538;SDS011;66042;51.090;-115.340;2023-05-14T07:56:21;9.80;;;4.30;;
74538;SDS011;66042;51.090;-115.340;2023-05-14T07:58:49;10.30;;;4.60;;
74538;SDS011;66042;51.090;-115.340;2023-05-14T08:01:17;7.90;;;4.30;;
74538;SDS011;66042;51.090;-115.340;2023-05-14T08:03:44;7.10;;;4.10;;
74538;SDS011;66042;51.090;-115.340;2023-05-14T08:06:11;8.60;;;4.30;;
74538;SDS011;66042;51.090;-115.340;2023-05-14T08:08:37;8.90;;;4.60;;
74538;SDS011;66042;51.090;-115.340;2023-05-14T08:11:04;8.60;;;4.80;;
74538;SDS011;66042;51.090;-115.340;2023-05-14T08:13:32;7.80;;;4.50;;
74538;SDS011;66042;51.090;-115.340;2023-05-14T08:15:59;9.30;;;4.50;;
74538;SDS011;66042;51.090;-115.340;2023-05-14T08:18:26;9.50;;;3.80;;
74538;SDS011;66042;51.090;-115.340;2023-05-14T08:20:53;8.70;;;4.30;;
74538;SDS011;66042;51.090;-115.340;2023-05-14T08:23:20;8.70;;;4.10;;
74538;SDS011;66042;51.090;-115.340;2023-05-14T08:25:47;10.20;;;4.70;;
74538;SDS011;66042;51.090;-115.340;2023-05-14T08:28:13;9.00;;;4.60;;
74538;SDS011;66042;51.090;-115.340;2023-05-14T08:30:40;9.30;;;4.50;;
74538;SDS011;66042;51.090;-115.340;2023-05-14T08:33:06;8.10;;;4.20;;
74538;SDS011;66042;51.090;-115.340;2023-05-14T08:35:33;7.60;;;4.20;;
74538;SDS011;66042;51.090;-115.340;2023-05-14T08:38:00;9.20;;;4.40;;
74538;SDS011;66042;51.090;-115.340;2023-05-14T08:40:27;8.60;;;4.40;;
74538;SDS011;66042;51.090;-115.340;2023-05-14T08:42:56;8.70;;;4.30;;
74538;SDS011;66042;51.090;-115.340;2023-05-14T08:45:28;9.10;;;4.50;;
74538;SDS011;66042;51.090;-115.340;2023-05-14T08:47:59;7.50;;;4.30;;
74538;SDS011;66042;51.090;-115.340;2023-05-14T08:50:30;7.30;;;4.40;;
74538;SDS011;66042;51.090;-115.340;2023-05-14T08:52:57;8.60;;;4.60;;
74538;SDS011;66042;51.090;-115.340;2023-05-14T08:55:26;9.20;;;4.50;;
74538;SDS011;66042;51.090;-115.340;2023-05-14T08:57:53;9.70;;;4.60;;
74538;SDS011;66042;51.090;-115.340;2023-05-14T09:00:21;9.60;;;4.70;;
74538;SDS011;66042;51.090;-115.340;2023-05-14T09:02:50;8.80;;;4.80;;
74538;SDS011;66042;51.090;-115.340;2023-05-14T09:05:18;8.20;;;4.60;;
74538;SDS011;66042;51.090;-115.340;2023-05-14T09:07:45;8.70;;;4.40;;
74538;SDS011;66042;51.090;-115.340;2023-05-14T09:10:12;7.80;;;4.60;;
74538;SDS011;66042;51.090;-115.340;2023-05-14T09:12:40;8.70;;;4.70;;
74538;SDS011;66042;51.090;-115.340;2023-05-14T09:15:07;9.20;;;4.80;;
74538;SDS011;66042;51.090;-115.340;2023-05-14T09:17:35;9.10;;;4.30;;
74538;SDS011;66042;51.090;-115.340;2023-05-14T09:20:02;9.10;;;4.60;;
74538;SDS011;66042;51.090;-115.340;2023-05-14T09:22:30;7.30;;;4.40;;
74538;SDS011;66042;51.090;-115.340;2023-05-14T09:25:07;9.90;;;4.70;;
74538;SDS011;66042;51.090;-115.340;2023-05-14T09:27:36;10.40;;;4.70;;
74538;SDS011;66042;51.090;-115.340;2023-05-14T09:30:08;10.00;;;4.60;;
74538;SDS011;66042;51.090;-115.340;2023-05-14T09:32:37;9.60;;;4.30;;
74538;SDS011;66042;51.090;-115.340;2023-05-14T09:35:26;8.70;;;4.50;;
74538;SDS011;66042;51.090;-115.340;2023-05-14T09:37:53;10.10;;;4.60;;
74538;SDS011;66042;51.090;-115.340;2023-05-14T09:40:22;9.30;;;4.80;;
74538;SDS011;66042;51.090;-115.340;2023-05-14T09:42:49;7.70;;;4.20;;
74538;SDS011;66042;51.090;-115.340;2023-05-14T09:45:16;7.30;;;4.20;;
74538;SDS011;66042;51.090;-115.340;2023-05-14T09:47:43;7.70;;;4.20;;
74538;SDS011;66042;51.090;-115.340;2023-05-14T09:50:10;7.70;;;4.20;;
74538;SDS011;66042;51.090;-115.340;2023-05-14T09:52:37;9.70;;;4.10;;
74538;SDS011;66042;51.090;-115.340;2023-05-14T09:55:04;8.80;;;4.30;;
74538;SDS011;66042;51.090;-115.340;2023-05-14T09:57:32;7.10;;;3.70;;
74538;SDS011;66042;51.090;-115.340;2023-05-14T10:00:00;9.70;;;4.80;;
74538;SDS011;66042;51.090;-115.340;2023-05-14T10:02:35;8.70;;;4.90;;
74538;SDS011;66042;51.090;-115.340;2023-05-14T10:05:06;7.10;;;4.20;;
74538;SDS011;66042;51.090;-115.340;2023-05-14T10:07:39;8.20;;;3.80;;
74538;SDS011;66042;51.090;-115.340;2023-05-14T10:10:14;7.30;;;4.00;;
74538;SDS011;66042;51.090;-115.340;2023-05-14T10:12:56;8.70;;;3.80;;
74538;SDS011;66042;51.090;-115.340;2023-05-14T10:18:30;6.80;;;4.20;;
74538;SDS011;66042;51.090;-115.340;2023-05-14T10:21:07;9.10;;;4.20;;
74538;SDS011;66042;51.090;-115.340;2023-05-14T10:23:36;6.50;;;3.80;;
74538;SDS011;66042;51.090;-115.340;2023-05-14T10:26:04;8.60;;;4.30;;
74538;SDS011;66042;51.090;-115.340;2023-05-14T10:28:31;7.30;;;4.00;;
74538;SDS011;66042;51.090;-115.340;2023-05-14T10:30:59;8.10;;;3.80;;
74538;SDS011;66042;51.090;-115.340;2023-05-14T10:33:26;7.20;;;4.40;;
74538;SDS011;66042;51.090;-115.340;2023-05-14T10:36:00;7.00;;;4.10;;
74538;SDS011;66042;51.090;-115.340;2023-05-14T10:38:37;7.60;;;4.20;;
74538;SDS011;66042;51.090;-115.340;2023-05-14T10:41:06;8.50;;;4.10;;
74538;SDS011;66042;51.090;-115.340;2023-05-14T10:43:39;7.30;;;3.90;;
74538;SDS011;66042;51.090;-115.340;2023-05-14T10:46:07;8.70;;;3.90;;
74538;SDS011;66042;51.090;-115.340;2023-05-14T10:48:36;8.50;;;3.90;;
74538;SDS011;66042;51.090;-115.340;2023-05-14T10:51:09;6.70;;;4.10;;
74538;SDS011;66042;51.090;-115.340;2023-05-14T10:53:41;7.20;;;3.90;;
74538;SDS011;66042;51.090;-115.340;2023-05-14T10:56:09;8.50;;;4.40;;
74538;SDS011;66042;51.090;-115.340;2023-05-14T10:58:42;7.40;;;4.20;;
74538;SDS011;66042;51.090;-115.340;2023-05-14T11:01:11;7.20;;;3.70;;
74538;SDS011;66042;51.090;-115.340;2023-05-14T11:03:44;7.00;;;3.90;;
74538;SDS011;66042;51.090;-115.340;2023-05-14T11:06:13;8.50;;;4.60;;
74538;SDS011;66042;51.090;-115.340;2023-05-14T11:08:41;7.10;;;4.30;;
74538;SDS011;66042;51.090;-115.340;2023-05-14T11:11:09;9.30;;;4.10;;
74538;SDS011;66042;51.090;-115.340;2023-05-14T11:13:35;7.40;;;3.90;;
74538;SDS011;66042;51.090;-115.340;2023-05-14T11:16:03;7.90;;;4.00;;
74538;SDS011;66042;51.090;-115.340;2023-05-14T11:18:33;7.50;;;4.30;;
74538;SDS011;66042;51.090;-115.340;2023-05-14T11:21:05;9.30;;;4.30;;
74538;SDS011;66042;51.090;-115.340;2023-05-14T11:23:31;6.70;;;3.80;;
74538;SDS011;66042;51.090;-115.340;2023-05-14T11:25:58;8.20;;;4.40;;
74538;SDS011;66042;51.090;-115.340;2023-05-14T11:28:25;8.40;;;4.00;;
74538;SDS011;66042;51.090;-115.340;2023-05-14T11:30:53;9.50;;;4.20;;
74538;SDS011;66042;51.090;-115.340;2023-05-14T11:33:19;8.80;;;3.80;;
74538;SDS011;66042;51.090;-115.340;2023-05-14T11:35:46;7.60;;;4.10;;
74538;SDS011;66042;51.090;-115.340;2023-05-14T11:38:17;8.00;;;3.90;;
74538;SDS011;66042;51.090;-115.340;2023-05-14T11:40:53;6.20;;;3.60;;
74538;SDS011;66042;51.090;-115.340;2023-05-14T11:43:21;6.90;;;4.20;;
74538;SDS011;66042;51.090;-115.340;2023-05-14T11:45:50;7.80;;;3.90;;
74538;SDS011;66042;51.090;-115.340;2023-05-14T11:48:18;7.00;;;3.20;;
74538;SDS011;66042;51.090;-115.340;2023-05-14T11:50:47;8.40;;;3.90;;
74538;SDS011;66042;51.090;-115.340;2023-05-14T11:53:19;7.90;;;3.20;;
74538;SDS011;66042;51.090;-115.340;2023-05-14T11:55:52;6.60;;;4.00;;
74538;SDS011;66042;51.090;-115.340;2023-05-14T11:58:20;8.20;;;4.20;;
74538;SDS011;66042;51.090;-115.340;2023-05-14T12:00:51;7.00;;;4.10;;
74538;SDS011;66042;51.090;-115.340;2023-05-14T12:03:20;8.90;;;3.90;;
74538;SDS011;66042;51.090;-115.340;2023-05-14T12:05:58;8.50;;;3.50;;
74538;SDS011;66042;51.090;-115.340;2023-05-14T12:10:56;6.80;;;3.90;;
74538;SDS011;66042;51.090;-115.340;2023-05-14T12:13:26;8.80;;;4.20;;
74538;SDS011;66042;51.090;-115.340;2023-05-14T12:15:56;9.90;;;4.00;;
74538;SDS011;66042;51.090;-115.340;2023-05-14T12:18:24;9.80;;;3.60;;
74538;SDS011;66042;51.090;-115.340;2023-05-14T12:20:53;7.70;;;4.10;;
74538;SDS011;66042;51.090;-115.340;2023-05-14T12:23:31;7.20;;;3.90;;
74538;SDS011;66042;51.090;-115.340;2023-05-14T12:26:05;7.10;;;3.40;;
74538;SDS011;66042;51.090;-115.340;2023-05-14T12:28:34;8.20;;;3.50;;
74538;SDS011;66042;51.090;-115.340;2023-05-14T12:31:07;7.10;;;3.90;;
74538;SDS011;66042;51.090;-115.340;2023-05-14T12:33:34;7.30;;;3.50;;
74538;SDS011;66042;51.090;-115.340;2023-05-14T12:36:00;9.40;;;4.10;;
74538;SDS011;66042;51.090;-115.340;2023-05-14T12:38:27;11.30;;;3.10;;
74538;SDS011;66042;51.090;-115.340;2023-05-14T12:40:54;7.30;;;3.40;;
74538;SDS011;66042;51.090;-115.340;2023-05-14T12:43:20;10.40;;;4.10;;
74538;SDS011;66042;51.090;-115.340;2023-05-14T12:45:47;7.80;;;3.70;;
74538;SDS011;66042;51.090;-115.340;2023-05-14T12:48:14;8.40;;;3.40;;
74538;SDS011;66042;51.090;-115.340;2023-05-14T12:50:41;8.60;;;3.90;;
74538;SDS011;66042;51.090;-115.340;2023-05-14T12:53:08;9.10;;;3.60;;
74538;SDS011;66042;51.090;-115.340;2023-05-14T12:55:35;7.50;;;3.90;;
74538;SDS011;66042;51.090;-115.340;2023-05-14T12:58:02;9.70;;;4.30;;
74538;SDS011;66042;51.090;-115.340;2023-05-14T13:00:28;8.00;;;3.80;;
74538;SDS011;66042;51.090;-115.340;2023-05-14T13:02:55;6.00;;;3.30;;
74538;SDS011;66042;51.090;-115.340;2023-05-14T13:05:22;8.40;;;3.90;;
74538;SDS011;66042;51.090;-115.340;2023-05-14T13:07:50;6.70;;;3.70;;
74538;SDS011;66042;51.090;-115.340;2023-05-14T13:10:18;7.00;;;3.90;;
74538;SDS011;66042;51.090;-115.340;2023-05-14T13:12:45;7.40;;;3.70;;
74538;SDS011;66042;51.090;-115.340;2023-05-14T13:15:12;8.70;;;3.90;;
74538;SDS011;66042;51.090;-115.340;2023-05-14T13:17:39;7.10;;;3.60;;
74538;SDS011;66042;51.090;-115.340;2023-05-14T13:20:06;7.40;;;4.00;;
74538;SDS011;66042;51.090;-115.340;2023-05-14T13:22:33;7.40;;;3.80;;
74538;SDS011;66042;51.090;-115.340;2023-05-14T13:25:00;9.10;;;4.20;;
74538;SDS011;66042;51.090;-115.340;2023-05-14T13:27:28;8.40;;;3.90;;
74538;SDS011;66042;51.090;-115.340;2023-05-14T13:29:55;7.70;;;4.10;;
74538;SDS011;66042;51.090;-115.340;2023-05-14T13:32:24;10.00;;;4.10;;
74538;SDS011;66042;51.090;-115.340;2023-05-14T13:34:50;10.30;;;4.20;;
74538;SDS011;66042;51.090;-115.340;2023-05-14T13:37:17;11.20;;;4.60;;
74538;SDS011;66042;51.090;-115.340;2023-05-14T13:39:44;8.70;;;4.00;;
74538;SDS011;66042;51.090;-115.340;2023-05-14T13:42:11;7.80;;;3.70;;
74538;SDS011;66042;51.090;-115.340;2023-05-14T13:44:38;9.90;;;3.60;;
74538;SDS011;66042;51.090;-115.340;2023-05-14T13:47:05;6.20;;;3.80;;
74538;SDS011;66042;51.090;-115.340;2023-05-14T13:49:32;8.60;;;3.20;;
74538;SDS011;66042;51.090;-115.340;2023-05-14T13:52:00;5.40;;;3.00;;
74538;SDS011;66042;51.090;-115.340;2023-05-14T13:54:26;7.40;;;3.60;;
74538;SDS011;66042;51.090;-115.340;2023-05-14T13:56:53;5.60;;;2.90;;
74538;SDS011;66042;51.090;-115.340;2023-05-14T13:59:19;6.20;;;3.60;;
74538;SDS011;66042;51.090;-115.340;2023-05-14T14:01:46;7.00;;;3.90;;
74538;SDS011;66042;51.090;-115.340;2023-05-14T14:04:14;5.40;;;2.70;;
74538;SDS011;66042;51.090;-115.340;2023-05-14T14:06:41;5.10;;;3.20;;
74538;SDS011;66042;51.090;-115.340;2023-05-14T14:09:09;11.50;;;3.30;;
74538;SDS011;66042;51.090;-115.340;2023-05-14T14:11:39;7.30;;;3.10;;
74538;SDS011;66042;51.090;-115.340;2023-05-14T14:14:05;6.20;;;3.70;;
74538;SDS011;66042;51.090;-115.340;2023-05-14T14:16:32;5.80;;;3.30;;
74538;SDS011;66042;51.090;-115.340;2023-05-14T14:18:59;6.60;;;3.20;;
74538;SDS011;66042;51.090;-115.340;2023-05-14T14:21:25;6.00;;;2.90;;
74538;SDS011;66042;51.090;-115.340;2023-05-14T14:23:52;6.50;;;3.30;;